Time;durP1;ratioP1;P1;durP2;ratioP2;P2;SDS_P1;SDS_P2;PMS_P1;PMS_P2;Temp;Humidity;BMP_temperature;BMP_pressure;BME280_temperature;BME280_humidity;BME280_pressure;Samples;Min_cycle;Max_cycle;Signal;HPM_P1;HPM_P2
2021/06/15 00:00:19;;;;;;;1.45;1.35;;;;;;;;;;5091628;28;20221;-88
2021/06/15 00:02:48;;;;;;;1.38;1.27;;;;;;;;;;5091103;28;20204;-88
2021/06/15 00:05:17;;;;;;;1.33;1.23;;;;;;;;;;5091372;28;20204;-88
2021/06/15 00:07:47;;;;;;;1.40;1.33;;;;;;;;;;5091437;28;20184;-88
2021/06/15 00:10:17;;;;;;;1.40;1.30;;;;;;;;;;5091160;28;20712;-87
2021/06/15 00:12:46;;;;;;;1.50;1.40;;;;;;;;;;5091058;28;20193;-88
2021/06/15 00:15:15;;;;;;;1.25;1.25;;;;;;;;;;5090879;28;20211;-88
2021/06/15 00:17:43;;;;;;;1.52;1.42;;;;;;;;;;5091252;28;20271;-87
2021/06/15 00:20:14;;;;;;;1.27;1.20;;;;;;;;;;5097080;28;20223;-88
2021/06/15 00:22:43;;;;;;;1.75;1.60;;;;;;;;;;5111805;28;20200;-88
2021/06/15 00:25:14;;;;;;;1.65;1.55;;;;;;;;;;5111227;28;20179;-88
2021/06/15 00:27:43;;;;;;;1.50;1.40;;;;;;;;;;5111095;28;20183;-88
2021/06/15 00:30:14;;;;;;;1.60;1.50;;;;;;;;;;5111382;28;20219;-88
2021/06/15 00:32:41;;;;;;;1.35;1.25;;;;;;;;;;5111269;28;20214;-88
2021/06/15 00:35:10;;;;;;;1.52;1.42;;;;;;;;;;5110937;28;20682;-88
2021/06/15 00:37:38;;;;;;;1.73;1.63;;;;;;;;;;5111189;28;20654;-87
2021/06/15 00:40:09;;;;;;;1.63;1.40;;;;;;;;;;5111246;28;20219;-88
2021/06/15 00:42:39;;;;;;;1.77;1.38;;;;;;;;;;5111175;28;20590;-87
2021/06/15 00:45:09;;;;;;;1.55;1.33;;;;;;;;;;5110968;28;20179;-88
2021/06/15 00:47:39;;;;;;;1.67;1.40;;;;;;;;;;5111166;28;20577;-88
2021/06/15 00:50:08;;;;;;;1.50;1.40;;;;;;;;;;5110583;28;20238;-88
2021/06/15 00:52:35;;;;;;;1.23;1.13;;;;;;;;;;5110791;28;20192;-88
2021/06/15 00:55:03;;;;;;;1.30;1.20;;;;;;;;;;5110833;28;20203;-89
2021/06/15 00:57:32;;;;;;;1.40;1.30;;;;;;;;;;5111024;28;20210;-87
2021/06/15 01:00:01;;;;;;;1.60;1.50;;;;;;;;;;5110727;28;20227;-88
2021/06/15 01:02:31;;;;;;;1.20;1.13;;;;;;;;;;5111157;28;20188;-88
2021/06/15 01:05:02;;;;;;;1.60;1.50;;;;;;;;;;5110652;28;20630;-87
2021/06/15 01:07:37;;;;;;;1.23;1.23;;;;;;;;;;5110892;28;20534;-88
2021/06/15 01:10:23;;;;;;;1.45;1.35;;;;;;;;;;5110481;28;20717;-88
2021/06/15 01:13:09;;;;;;;1.38;1.27;;;;;;;;;;5110911;28;20184;-88
2021/06/15 01:15:43;;;;;;;1.42;1.33;;;;;;;;;;5110831;28;20183;-88
2021/06/15 01:18:14;;;;;;;1.23;1.23;;;;;;;;;;5110693;28;20188;-87
2021/06/15 01:20:45;;;;;;;1.67;1.58;;;;;;;;;;5110576;28;20380;-87
2021/06/15 01:24:15;;;;;;;1.30;1.20;;;;;;;;;;5110316;28;20625;-88
2021/06/15 01:27:12;;;;;;;1.58;1.42;;;;;;;;;;4982131;28;20205;-88
2021/06/15 01:29:41;;;;;;;1.90;1.45;;;;;;;;;;5048164;28;20240;-88
2021/06/15 01:32:14;;;;;;;1.70;1.60;;;;;;;;;;5092583;28;20317;-88
2021/06/15 01:34:43;;;;;;;2.17;2.00;;;;;;;;;;5114617;28;20183;-88
2021/06/15 01:37:17;;;;;;;2.45;2.13;;;;;;;;;;5115745;28;20188;-88
2021/06/15 01:39:51;;;;;;;2.10;2.00;;;;;;;;;;5095672;28;20285;-88
2021/06/15 01:42:22;;;;;;;1.65;1.55;;;;;;;;;;5074553;28;20271;-87
2021/06/15 01:45:07;;;;;;;2.10;2.00;;;;;;;;;;5074293;28;20192;-88
2021/06/15 01:47:36;;;;;;;1.50;1.40;;;;;;;;;;5074250;28;20192;-88
2021/06/15 01:50:07;;;;;;;1.65;1.55;;;;;;;;;;5074073;28;20238;-88
2021/06/15 01:52:38;;;;;;;3.30;2.90;;;;;;;;;;5074019;28;20220;-89
2021/06/15 01:55:08;;;;;;;1.63;1.52;;;;;;;;;;5093395;28;20207;-88
2021/06/15 01:57:38;;;;;;;1.35;1.17;;;;;;;;;;5094319;28;20283;-88
2021/06/15 02:00:13;;;;;;;1.20;1.20;;;;;;;;;;5094100;28;20235;-88
2021/06/15 02:03:10;;;;;;;1.30;1.20;;;;;;;;;;5093812;28;20191;-88
2021/06/15 02:05:42;;;;;;;1.10;1.10;;;;;;;;;;5085716;28;20622;-88
2021/06/15 02:08:14;;;;;;;1.13;1.10;;;;;;;;;;5096111;28;20187;-88
2021/06/15 02:10:43;;;;;;;1.52;1.42;;;;;;;;;;5083386;28;20204;-89
2021/06/15 02:13:11;;;;;;;1.30;1.15;;;;;;;;;;5074519;28;20216;-89
2021/06/15 02:15:43;;;;;;;1.83;1.13;;;;;;;;;;5091917;28;20738;-88
2021/06/15 02:18:19;;;;;;;1.50;1.25;;;;;;;;;;5095541;28;20185;-88
2021/06/15 02:20:47;;;;;;;1.52;1.42;;;;;;;;;;5094334;28;20196;-87
2021/06/15 02:23:20;;;;;;;1.30;1.20;;;;;;;;;;5096145;28;20187;-88
2021/06/15 02:25:55;;;;;;;1.13;1.13;;;;;;;;;;5097055;28;20222;-88
2021/06/15 02:28:23;;;;;;;1.00;1.00;;;;;;;;;;5096633;28;20227;-87
2021/06/15 02:30:52;;;;;;;1.50;1.40;;;;;;;;;;5096291;28;20193;-88
2021/06/15 02:33:25;;;;;;;1.45;1.35;;;;;;;;;;5096092;28;20215;-88
2021/06/15 02:35:58;;;;;;;1.00;1.00;;;;;;;;;;5095865;28;20535;-88
2021/06/15 02:38:30;;;;;;;1.10;1.10;;;;;;;;;;5095739;28;20217;-87
2021/06/15 02:41:04;;;;;;;0.90;0.90;;;;;;;;;;5095690;28;20188;-88
2021/06/15 02:43:33;;;;;;;1.40;1.30;;;;;;;;;;5094856;28;20177;-88
2021/06/15 02:46:03;;;;;;;1.33;1.23;;;;;;;;;;5093934;28;20200;-88
2021/06/15 02:48:36;;;;;;;1.20;1.10;;;;;;;;;;5095559;28;20690;-88
2021/06/15 02:51:07;;;;;;;1.20;1.10;;;;;;;;;;5090142;28;20242;-88
2021/06/15 02:53:40;;;;;;;1.00;1.00;;;;;;;;;;5089657;28;20252;-88
2021/06/15 02:56:15;;;;;;;1.58;1.48;;;;;;;;;;5095075;28;20279;-87
2021/06/15 02:58:43;;;;;;;1.10;1.10;;;;;;;;;;5091417;28;20213;-88
2021/06/15 03:01:13;;;;;;;0.90;0.90;;;;;;;;;;5095238;28;20255;-89
2021/06/15 03:03:40;;;;;;;0.90;0.90;;;;;;;;;;5092008;28;20210;-88
2021/06/15 03:06:08;;;;;;;1.73;1.20;;;;;;;;;;5091792;28;20272;-88
2021/06/15 03:08:37;;;;;;;1.38;1.27;;;;;;;;;;5092035;28;20220;-89
2021/06/15 03:11:05;;;;;;;1.60;1.30;;;;;;;;;;5091332;28;20204;-88
2021/06/15 03:13:39;;;;;;;1.13;1.13;;;;;;;;;;5091567;28;20236;-88
2021/06/15 03:16:09;;;;;;;1.20;1.10;;;;;;;;;;5091714;28;20216;-87
2021/06/15 03:18:43;;;;;;;1.20;1.20;;;;;;;;;;5091498;28;20212;-88
2021/06/15 03:21:14;;;;;;;2.20;1.35;;;;;;;;;;5092364;28;20241;-88
2021/06/15 03:23:48;;;;;;;1.60;1.50;;;;;;;;;;5092100;28;20208;-88
2021/06/15 03:26:20;;;;;;;1.60;1.50;;;;;;;;;;5091829;28;20660;-88
2021/06/15 03:28:53;;;;;;;1.52;1.25;;;;;;;;;;5091921;28;20226;-88
2021/06/15 03:31:22;;;;;;;1.20;1.13;;;;;;;;;;5092115;28;20200;-88
2021/06/15 03:33:55;;;;;;;2.00;1.90;;;;;;;;;;5091715;28;20613;-88
2021/06/15 03:36:25;;;;;;;1.48;1.38;;;;;;;;;;5091683;28;20183;-89
2021/06/15 03:38:56;;;;;;;1.55;1.45;;;;;;;;;;5091773;28;20225;-88
2021/06/15 03:41:24;;;;;;;1.80;1.25;;;;;;;;;;5091478;28;20199;-88
2021/06/15 03:43:56;;;;;;;1.42;1.20;;;;;;;;;;5092036;28;20185;-88
2021/06/15 03:46:24;;;;;;;1.02;1.02;;;;;;;;;;5091463;28;20202;-89
2021/06/15 03:48:54;;;;;;;1.55;1.45;;;;;;;;;;5091488;28;20224;-88
2021/06/15 03:51:25;;;;;;;1.95;1.38;;;;;;;;;;5091251;28;20659;-88
2021/06/15 03:54:05;;;;;;;1.60;1.50;;;;;;;;;;5091130;28;20232;-88
2021/06/15 03:56:35;;;;;;;1.40;1.30;;;;;;;;;;5091734;28;20291;-90
2021/06/15 03:59:04;;;;;;;1.50;1.40;;;;;;;;;;5091650;28;20593;-88
2021/06/15 04:01:33;;;;;;;3.00;2.72;;;;;;;;;;5091405;28;20223;-88
2021/06/15 04:04:05;;;;;;;1.42;1.33;;;;;;;;;;5091764;28;20564;-88
2021/06/15 04:06:33;;;;;;;1.48;1.38;;;;;;;;;;5091845;28;20208;-88
2021/06/15 04:09:04;;;;;;;1.58;1.48;;;;;;;;;;5091591;28;20230;-88
2021/06/15 04:11:36;;;;;;;3.10;2.22;;;;;;;;;;5092055;28;20254;-88
2021/06/15 04:14:04;;;;;;;2.10;1.92;;;;;;;;;;5091662;28;20200;-90
2021/06/15 04:16:31;;;;;;;4.70;2.38;;;;;;;;;;5091610;28;20192;-88
2021/06/15 04:19:01;;;;;;;1.98;1.83;;;;;;;;;;5091725;28;20836;-89
2021/06/15 04:21:30;;;;;;;2.20;2.10;;;;;;;;;;5091845;28;20192;-88
2021/06/15 04:24:02;;;;;;;2.22;2.03;;;;;;;;;;5091776;28;20200;-88
2021/06/15 04:26:33;;;;;;;2.08;1.98;;;;;;;;;;5091215;28;20655;-88
2021/06/15 04:29:01;;;;;;;3.33;2.33;;;;;;;;;;5091831;28;20242;-88
2021/06/15 04:31:30;;;;;;;2.13;2.00;;;;;;;;;;5092133;28;20210;-88
2021/06/15 04:33:58;;;;;;;2.75;2.55;;;;;;;;;;5091636;28;20208;-88
2021/06/15 04:36:27;;;;;;;2.45;2.25;;;;;;;;;;5091377;28;20193;-89
2021/06/15 04:39:01;;;;;;;2.65;2.45;;;;;;;;;;5091185;28;20698;-89
2021/06/15 04:41:32;;;;;;;2.70;2.50;;;;;;;;;;5091528;28;20177;-88
2021/06/15 04:44:04;;;;;;;2.80;2.60;;;;;;;;;;5091339;28;20204;-88
2021/06/15 04:46:52;;;;;;;3.28;2.90;;;;;;;;;;5092849;28;20203;-88
2021/06/15 04:49:24;;;;;;;3.38;2.80;;;;;;;;;;5092912;28;20311;-88
2021/06/15 04:51:55;;;;;;;2.97;2.67;;;;;;;;;;5090832;28;20238;-88
2021/06/15 04:54:23;;;;;;;3.33;3.00;;;;;;;;;;5091641;28;20709;-88
2021/06/15 04:56:52;;;;;;;3.22;2.92;;;;;;;;;;5091407;28;20200;-88
2021/06/15 04:59:22;;;;;;;3.53;3.33;;;;;;;;;;5091404;28;20224;-88
2021/06/15 05:01:50;;;;;;;2.60;2.40;;;;;;;;;;5091090;28;20195;-88
2021/06/15 05:04:18;;;;;;;4.90;3.08;;;;;;;;;;5091793;28;20193;-89
2021/06/15 05:06:47;;;;;;;3.40;3.03;;;;;;;;;;5091284;28;20218;-89
2021/06/15 05:09:17;;;;;;;3.05;2.33;;;;;;;;;;5092343;28;20311;-90
2021/06/15 05:11:45;;;;;;;3.75;3.08;;;;;;;;;;5092337;28;20655;-90
2021/06/15 05:14:14;;;;;;;3.10;2.80;;;;;;;;;;5092385;28;20300;-90
2021/06/15 05:16:42;;;;;;;3.28;2.70;;;;;;;;;;5092384;28;20238;-90
2021/06/15 05:19:10;;;;;;;2.90;2.60;;;;;;;;;;5091959;28;20296;-90
2021/06/15 05:21:44;;;;;;;3.00;2.17;;;;;;;;;;5092240;28;20204;-89
2021/06/15 05:24:20;;;;;;;2.50;2.30;;;;;;;;;;5092438;28;20188;-89
2021/06/15 05:26:49;;;;;;;3.03;2.03;;;;;;;;;;5091376;28;20677;-90
2021/06/15 05:29:16;;;;;;;2.92;2.30;;;;;;;;;;5091659;28;20779;-90
2021/06/15 05:31:44;;;;;;;2.67;2.47;;;;;;;;;;5091317;28;20200;-89
2021/06/15 05:34:12;;;;;;;2.53;2.20;;;;;;;;;;5092010;28;20204;-89
2021/06/15 05:36:39;;;;;;;3.42;2.70;;;;;;;;;;5091795;28;20204;-89
2021/06/15 05:39:08;;;;;;;2.67;2.53;;;;;;;;;;5091167;28;20216;-90
2021/06/15 05:41:35;;;;;;;2.22;2.05;;;;;;;;;;5091080;28;20196;-89
2021/06/15 05:44:04;;;;;;;2.13;2.00;;;;;;;;;;5091183;28;20287;-89
2021/06/15 05:46:32;;;;;;;2.70;2.50;;;;;;;;;;5090988;28;20189;-89
2021/06/15 05:48:59;;;;;;;2.72;2.53;;;;;;;;;;5090660;28;20213;-89
2021/06/15 05:51:27;;;;;;;4.60;2.67;;;;;;;;;;5090339;28;20315;-89
2021/06/15 05:53:55;;;;;;;2.38;1.80;;;;;;;;;;5090116;28;20684;-88
2021/06/15 05:56:22;;;;;;;2.08;1.98;;;;;;;;;;5090114;28;20215;-88
2021/06/15 05:58:50;;;;;;;2.05;1.90;;;;;;;;;;5089712;28;20212;-88
2021/06/15 06:01:18;;;;;;;1.77;1.67;;;;;;;;;;5090001;28;20232;-88
2021/06/15 06:03:52;;;;;;;1.88;1.77;;;;;;;;;;5089959;28;20196;-88
2021/06/15 06:09:05;;;;;;;2.60;2.40;;;;;;;;;;5090523;28;20219;-89
2021/06/15 06:11:32;;;;;;;2.50;2.30;;;;;;;;;;5091130;28;20208;-88
2021/06/15 06:13:59;;;;;;;3.10;2.88;;;;;;;;;;5090859;28;20224;-89
2021/06/15 06:16:28;;;;;;;3.50;3.20;;;;;;;;;;5090833;28;20206;-87
2021/06/15 06:18:56;;;;;;;3.17;2.97;;;;;;;;;;5094522;28;20569;-88
2021/06/15 06:21:23;;;;;;;3.15;2.80;;;;;;;;;;5094712;28;20253;-89
2021/06/15 06:23:51;;;;;;;5.28;3.53;;;;;;;;;;5095349;28;20220;-88
2021/06/15 06:26:18;;;;;;;2.88;2.67;;;;;;;;;;5094301;28;20197;-88
2021/06/15 06:28:46;;;;;;;5.50;3.95;;;;;;;;;;5094455;28;20216;-88
2021/06/15 06:31:13;;;;;;;3.28;3.08;;;;;;;;;;5094826;28;20193;-88
2021/06/15 06:33:42;;;;;;;3.80;3.50;;;;;;;;;;5094674;28;20185;-88
2021/06/15 06:36:09;;;;;;;3.33;2.92;;;;;;;;;;5095151;28;20208;-88
2021/06/15 06:38:37;;;;;;;4.07;3.22;;;;;;;;;;5094561;28;20235;-86
2021/06/15 06:41:04;;;;;;;3.60;3.30;;;;;;;;;;5094843;28;20184;-88
2021/06/15 06:43:32;;;;;;;3.67;3.38;;;;;;;;;;5094517;28;20196;-88
2021/06/15 06:45:59;;;;;;;5.10;3.55;;;;;;;;;;5094970;28;20180;-88
2021/06/15 06:48:27;;;;;;;4.03;3.63;;;;;;;;;;5093831;28;20212;-88
2021/06/15 06:50:55;;;;;;;3.78;3.47;;;;;;;;;;5093778;28;20230;-88
2021/06/15 06:53:23;;;;;;;2.95;2.70;;;;;;;;;;5094239;28;20204;-88
2021/06/15 06:55:50;;;;;;;3.75;3.08;;;;;;;;;;5093515;28;20295;-88
2021/06/15 06:58:18;;;;;;;3.47;3.17;;;;;;;;;;5093778;28;20196;-88
2021/06/15 07:00:45;;;;;;;3.78;3.38;;;;;;;;;;5094330;28;20200;-88
2021/06/15 07:03:12;;;;;;;3.58;3.20;;;;;;;;;;5093512;28;20196;-88
2021/06/15 07:05:40;;;;;;;3.05;2.70;;;;;;;;;;5093778;28;20193;-88
2021/06/15 07:08:09;;;;;;;3.50;3.22;;;;;;;;;;5094173;28;20519;-88
2021/06/15 07:10:36;;;;;;;4.50;3.15;;;;;;;;;;5093759;28;20203;-88
2021/06/15 07:13:04;;;;;;;3.13;2.42;;;;;;;;;;5094059;28;20208;-88
2021/06/15 07:15:32;;;;;;;3.35;3.15;;;;;;;;;;5094431;28;20238;-88
2021/06/15 07:17:59;;;;;;;4.20;3.80;;;;;;;;;;5094927;28;20636;-88
2021/06/15 07:20:27;;;;;;;3.95;3.45;;;;;;;;;;5094564;28;20307;-88
2021/06/15 07:22:54;;;;;;;4.55;3.58;;;;;;;;;;5094779;28;20188;-88
2021/06/15 07:25:23;;;;;;;4.68;4.25;;;;;;;;;;5094666;28;20184;-88
2021/06/15 07:27:51;;;;;;;4.10;3.80;;;;;;;;;;5095104;28;20184;-88
2021/06/15 07:30:19;;;;;;;3.85;3.45;;;;;;;;;;5094147;28;20299;-88
2021/06/15 07:32:48;;;;;;;3.63;3.33;;;;;;;;;;5094791;28;20188;-88
2021/06/15 07:35:15;;;;;;;5.22;3.65;;;;;;;;;;5094507;28;20205;-88
2021/06/15 07:37:44;;;;;;;4.63;3.70;;;;;;;;;;5094738;28;20267;-88
2021/06/15 07:40:12;;;;;;;5.78;4.53;;;;;;;;;;5094559;28;20220;-89
2021/06/15 07:42:41;;;;;;;4.68;4.10;;;;;;;;;;5095927;28;20208;-88
2021/06/15 07:45:10;;;;;;;4.72;3.88;;;;;;;;;;5094976;28;20208;-87
2021/06/15 07:47:38;;;;;;;5.47;4.97;;;;;;;;;;5095845;28;20188;-88
2021/06/15 07:50:06;;;;;;;3.92;3.63;;;;;;;;;;5096320;28;20228;-87
2021/06/15 07:52:34;;;;;;;4.60;4.20;;;;;;;;;;5097707;28;20204;-87
2021/06/15 07:55:02;;;;;;;3.75;3.33;;;;;;;;;;5097865;28;20216;-87
2021/06/15 07:57:29;;;;;;;6.55;4.75;;;;;;;;;;5097028;28;20185;-87
2021/06/15 07:59:58;;;;;;;3.38;3.08;;;;;;;;;;5098132;28;20217;-88
2021/06/15 08:02:25;;;;;;;3.53;3.28;;;;;;;;;;5097798;28;20184;-87
2021/06/15 08:04:53;;;;;;;4.30;3.90;;;;;;;;;;5095164;28;20208;-87
2021/06/15 08:07:20;;;;;;;4.55;3.65;;;;;;;;;;5096539;28;20223;-86
2021/06/15 08:09:48;;;;;;;4.32;3.92;;;;;;;;;;5095051;28;20219;-87
2021/06/15 08:12:17;;;;;;;6.05;4.38;;;;;;;;;;5096576;28;20631;-87
2021/06/15 08:14:46;;;;;;;4.45;3.92;;;;;;;;;;5095506;28;20277;-88
2021/06/15 08:17:15;;;;;;;5.20;4.63;;;;;;;;;;5095935;28;20264;-87
2021/06/15 08:19:43;;;;;;;4.40;3.63;;;;;;;;;;5099374;28;20220;-87
2021/06/15 08:22:11;;;;;;;3.92;3.63;;;;;;;;;;5098946;28;20183;-87
2021/06/15 08:24:39;;;;;;;4.35;3.85;;;;;;;;;;5097121;28;20184;-87
2021/06/15 08:27:06;;;;;;;5.35;4.47;;;;;;;;;;5095908;28;20275;-87
2021/06/15 08:29:34;;;;;;;5.63;5.13;;;;;;;;;;5095634;28;20216;-87
2021/06/15 08:32:01;;;;;;;5.18;4.65;;;;;;;;;;5096930;28;20388;-87
2021/06/15 08:34:30;;;;;;;4.63;4.13;;;;;;;;;;5096510;28;20268;-87
2021/06/15 08:36:57;;;;;;;5.80;5.30;;;;;;;;;;5095764;28;20296;-87
2021/06/15 08:39:25;;;;;;;4.75;4.30;;;;;;;;;;5098844;28;20227;-87
2021/06/15 08:41:52;;;;;;;5.43;4.90;;;;;;;;;;5096299;28;20185;-85
2021/06/15 08:44:19;;;;;;;4.68;4.28;;;;;;;;;;5096466;28;20210;-86
2021/06/15 08:46:47;;;;;;;3.88;3.58;;;;;;;;;;5097061;28;20201;-85
2021/06/15 08:49:15;;;;;;;4.90;4.50;;;;;;;;;;5096460;28;20258;-86
2021/06/15 08:51:44;;;;;;;4.70;4.25;;;;;;;;;;5096036;28;20260;-85
2021/06/15 08:54:17;;;;;;;6.40;4.55;;;;;;;;;;5096937;28;20184;-84
2021/06/15 08:56:45;;;;;;;5.10;4.70;;;;;;;;;;5097956;28;20258;-85
2021/06/15 08:59:21;;;;;;;4.85;4.30;;;;;;;;;;5097597;28;20235;-85
2021/06/15 09:01:50;;;;;;;4.35;4.00;;;;;;;;;;5099487;28;20286;-84
2021/06/15 09:04:18;;;;;;;3.78;3.47;;;;;;;;;;5097579;28;20185;-85
2021/06/15 09:06:47;;;;;;;4.30;3.90;;;;;;;;;;5096208;28;20567;-84
2021/06/15 09:09:15;;;;;;;3.78;3.47;;;;;;;;;;5098872;28;20228;-84
2021/06/15 09:11:55;;;;;;;3.90;3.55;;;;;;;;;;5098203;28;20200;-84
2021/06/15 09:14:46;;;;;;;3.95;3.55;;;;;;;;;;5096793;28;20197;-84
2021/06/15 09:17:18;;;;;;;4.35;3.95;;;;;;;;;;5097233;28;20622;-84
2021/06/15 09:19:46;;;;;;;4.35;3.40;;;;;;;;;;5097293;28;20219;-85
2021/06/15 09:22:26;;;;;;;4.78;4.40;;;;;;;;;;5096268;28;20627;-85
2021/06/15 09:24:54;;;;;;;4.80;4.38;;;;;;;;;;5096684;28;20226;-84
2021/06/15 09:27:30;;;;;;;3.38;3.08;;;;;;;;;;5098248;28;20193;-84
2021/06/15 09:29:59;;;;;;;2.40;2.30;;;;;;;;;;5099060;28;20314;-84
2021/06/15 09:32:29;;;;;;;2.95;2.75;;;;;;;;;;5098591;28;20204;-85
2021/06/15 09:34:59;;;;;;;5.47;4.22;;;;;;;;;;5098393;28;20208;-85
2021/06/15 09:37:37;;;;;;;3.15;2.92;;;;;;;;;;5099116;28;20231;-85
2021/06/15 09:40:13;;;;;;;3.22;2.97;;;;;;;;;;5097553;28;20309;-85
2021/06/15 09:43:02;;;;;;;4.38;3.65;;;;;;;;;;5095750;28;20211;-84
2021/06/15 09:45:32;;;;;;;3.83;3.45;;;;;;;;;;5095742;28;20192;-84
2021/06/15 09:48:24;;;;;;;2.83;2.63;;;;;;;;;;5095546;28;20207;-84
2021/06/15 09:50:53;;;;;;;3.28;3.08;;;;;;;;;;5096963;28;20251;-84
2021/06/15 09:53:28;;;;;;;5.55;3.95;;;;;;;;;;5099303;28;20200;-84
2021/06/15 09:55:59;;;;;;;2.90;2.70;;;;;;;;;;5100963;28;20312;-84
2021/06/15 09:58:48;;;;;;;3.00;2.80;;;;;;;;;;5105417;28;20315;-85
2021/06/15 10:01:25;;;;;;;3.35;3.08;;;;;;;;;;5102574;28;20239;-85
2021/06/15 10:04:18;;;;;;;4.15;3.85;;;;;;;;;;5102267;28;20197;-84
2021/06/15 10:06:48;;;;;;;3.15;2.72;;;;;;;;;;5101344;28;20184;-84
2021/06/15 10:09:26;;;;;;;5.10;3.92;;;;;;;;;;5100374;28;20587;-84
2021/06/15 10:11:55;;;;;;;4.18;3.53;;;;;;;;;;5098622;28;20679;-84
2021/06/15 10:14:23;;;;;;;3.90;3.47;;;;;;;;;;5099194;28;20275;-85
2021/06/15 10:16:51;;;;;;;3.35;3.05;;;;;;;;;;5099757;28;20208;-85
2021/06/15 10:19:19;;;;;;;3.17;2.88;;;;;;;;;;5100721;28;20226;-84
2021/06/15 10:21:46;;;;;;;4.00;3.60;;;;;;;;;;5100201;28;20202;-85
2021/06/15 10:24:15;;;;;;;4.32;3.70;;;;;;;;;;5096661;28;20646;-85
2021/06/15 10:26:43;;;;;;;3.30;3.00;;;;;;;;;;5097494;28;20720;-85
2021/06/15 10:29:12;;;;;;;3.35;3.05;;;;;;;;;;5098880;28;20224;-84
2021/06/15 10:31:45;;;;;;;3.50;3.20;;;;;;;;;;5098353;28;20203;-84
2021/06/15 10:34:13;;;;;;;3.50;3.20;;;;;;;;;;5098419;28;20187;-85
2021/06/15 10:36:44;;;;;;;3.03;2.83;;;;;;;;;;5096844;28;20224;-85
2021/06/15 10:39:17;;;;;;;2.75;2.55;;;;;;;;;;5097707;28;20284;-85
2021/06/15 10:41:46;;;;;;;2.40;2.20;;;;;;;;;;5098225;28;20188;-84
2021/06/15 10:44:15;;;;;;;2.85;2.65;;;;;;;;;;5098175;28;20597;-85
2021/06/15 10:46:45;;;;;;;4.28;3.88;;;;;;;;;;5097840;28;20209;-84
2021/06/15 10:49:14;;;;;;;4.00;3.65;;;;;;;;;;5097648;28;20220;-86
2021/06/15 10:51:59;;;;;;;4.20;3.40;;;;;;;;;;5095688;28;20254;-85
2021/06/15 10:54:47;;;;;;;3.30;3.10;;;;;;;;;;5096797;28;20538;-85
2021/06/15 10:57:28;;;;;;;3.40;3.10;;;;;;;;;;5097249;28;20231;-84
2021/06/15 11:00:25;;;;;;;3.30;3.00;;;;;;;;;;5097512;28;20220;-84
2021/06/15 11:03:24;;;;;;;3.25;2.95;;;;;;;;;;5097200;28;20185;-85
2021/06/15 11:05:57;;;;;;;3.50;3.20;;;;;;;;;;5094808;28;20204;-85
2021/06/15 11:08:27;;;;;;;3.50;3.20;;;;;;;;;;5097350;28;20224;-84
2021/06/15 11:10:57;;;;;;;3.60;3.03;;;;;;;;;;5097326;28;20234;-85
2021/06/15 11:13:48;;;;;;;3.70;3.40;;;;;;;;;;5097133;28;20196;-85
2021/06/15 11:16:27;;;;;;;3.20;3.00;;;;;;;;;;5091750;28;20294;-85
2021/06/15 11:19:33;;;;;;;3.95;3.55;;;;;;;;;;5096728;28;20224;-85
2021/06/15 11:22:04;;;;;;;2.83;2.63;;;;;;;;;;5095848;28;20200;-84
2021/06/15 11:24:35;;;;;;;4.68;3.55;;;;;;;;;;5096412;28;20232;-85
2021/06/15 11:27:05;;;;;;;3.00;2.80;;;;;;;;;;5096442;28;20231;-85
2021/06/15 11:29:36;;;;;;;4.00;2.80;;;;;;;;;;5096439;28;20224;-85
2021/06/15 11:32:22;;;;;;;2.17;2.08;;;;;;;;;;5096202;28;20235;-85
2021/06/15 11:35:27;;;;;;;3.10;2.80;;;;;;;;;;5094753;28;20279;-85
2021/06/15 11:37:54;;;;;;;3.42;3.22;;;;;;;;;;5094495;28;20226;-85
2021/06/15 11:40:29;;;;;;;3.25;2.97;;;;;;;;;;5095011;28;20216;-84
2021/06/15 11:43:17;;;;;;;3.05;2.78;;;;;;;;;;5095190;28;20210;-85
2021/06/15 11:45:47;;;;;;;4.07;3.17;;;;;;;;;;5095139;28;20211;-84
2021/06/15 11:48:30;;;;;;;3.05;2.80;;;;;;;;;;5094808;28;20662;-85
2021/06/15 11:50:58;;;;;;;2.55;2.35;;;;;;;;;;5096480;28;20223;-85
2021/06/15 11:53:27;;;;;;;3.15;2.95;;;;;;;;;;5096269;28;20602;-86
2021/06/15 11:55:56;;;;;;;3.20;2.92;;;;;;;;;;5094781;28;20538;-85
2021/06/15 11:58:27;;;;;;;3.03;2.83;;;;;;;;;;5095837;28;20234;-85
2021/06/15 12:00:58;;;;;;;2.92;2.72;;;;;;;;;;5095581;28;20601;-85
2021/06/15 12:03:28;;;;;;;2.78;2.58;;;;;;;;;;5095485;28;20201;-86
2021/06/15 12:05:57;;;;;;;3.00;2.80;;;;;;;;;;5094932;28;20181;-86
2021/06/15 12:08:28;;;;;;;3.00;2.75;;;;;;;;;;5094560;28;20180;-85
2021/06/15 12:10:57;;;;;;;3.33;3.13;;;;;;;;;;5094182;28;20204;-84
2021/06/15 12:13:26;;;;;;;2.88;2.67;;;;;;;;;;5094527;28;20200;-85
2021/06/15 12:16:00;;;;;;;2.88;2.67;;;;;;;;;;5094152;28;20188;-85
2021/06/15 12:18:37;;;;;;;2.58;2.38;;;;;;;;;;5093722;28;20591;-85
2021/06/15 12:21:08;;;;;;;2.40;2.20;;;;;;;;;;5094101;28;20271;-85
2021/06/15 12:23:42;;;;;;;2.53;2.33;;;;;;;;;;5094289;28;20677;-84
2021/06/15 12:26:28;;;;;;;2.80;2.60;;;;;;;;;;5094484;28;20249;-85
2021/06/15 12:28:58;;;;;;;2.10;2.00;;;;;;;;;;5095149;28;20216;-85
2021/06/15 12:31:29;;;;;;;4.28;2.75;;;;;;;;;;5093860;28;20185;-85
2021/06/15 12:33:58;;;;;;;3.17;2.80;;;;;;;;;;5095291;28;20661;-85
2021/06/15 12:36:29;;;;;;;3.03;2.83;;;;;;;;;;5093982;28;20284;-84
2021/06/15 12:39:09;;;;;;;2.63;2.42;;;;;;;;;;5096347;28;20224;-87
2021/06/15 12:41:38;;;;;;;7.40;2.70;;;;;;;;;;5095430;28;20196;-85
2021/06/15 12:44:06;;;;;;;2.50;2.30;;;;;;;;;;5096330;28;20204;-85
2021/06/15 12:46:37;;;;;;;2.40;2.20;;;;;;;;;;5096021;28;20206;-85
2021/06/15 12:49:15;;;;;;;2.60;2.40;;;;;;;;;;5094528;28;20613;-87
2021/06/15 12:51:45;;;;;;;2.30;2.10;;;;;;;;;;5080198;28;20227;-87
2021/06/15 12:54:22;;;;;;;2.90;2.67;;;;;;;;;;5055619;28;20284;-86
2021/06/15 12:57:01;;;;;;;2.90;2.70;;;;;;;;;;5072712;28;20287;-87
2021/06/15 12:59:30;;;;;;;2.33;2.20;;;;;;;;;;5073718;28;20263;-86
2021/06/15 13:01:59;;;;;;;2.10;2.00;;;;;;;;;;5074041;28;20529;-86
2021/06/15 13:04:28;;;;;;;2.08;1.95;;;;;;;;;;5073355;28;20190;-87
2021/06/15 13:06:59;;;;;;;2.80;2.60;;;;;;;;;;5080467;28;20176;-86
2021/06/15 13:09:28;;;;;;;3.10;2.90;;;;;;;;;;5081153;28;20263;-86
2021/06/15 13:12:07;;;;;;;3.13;2.88;;;;;;;;;;5070451;28;20197;-87
2021/06/15 13:15:05;;;;;;;3.17;2.97;;;;;;;;;;5085543;28;20654;-85
2021/06/15 13:17:36;;;;;;;2.80;2.60;;;;;;;;;;5075730;28;20244;-87
2021/06/15 13:20:07;;;;;;;2.70;2.50;;;;;;;;;;5071340;28;20682;-87
2021/06/15 13:22:37;;;;;;;1.90;1.80;;;;;;;;;;5092085;28;20275;-87
2021/06/15 13:25:07;;;;;;;2.28;2.10;;;;;;;;;;5083407;28;20193;-84
2021/06/15 13:27:38;;;;;;;1.50;1.40;;;;;;;;;;5070919;28;20197;-85
2021/06/15 13:30:10;;;;;;;1.90;1.80;;;;;;;;;;5082251;28;20286;-85
2021/06/15 13:32:41;;;;;;;1.85;1.75;;;;;;;;;;5069042;28;20659;-85
2021/06/15 13:35:14;;;;;;;3.08;2.78;;;;;;;;;;5080604;28;20196;-86
2021/06/15 13:37:49;;;;;;;2.83;2.63;;;;;;;;;;5077834;28;20203;-85
2021/06/15 13:40:35;;;;;;;3.97;3.30;;;;;;;;;;5087616;28;21053;-86
2021/06/15 13:43:07;;;;;;;3.70;3.40;;;;;;;;;;5079878;28;20254;-85
2021/06/15 13:45:36;;;;;;;3.10;2.90;;;;;;;;;;5078042;28;20663;-86
2021/06/15 13:48:08;;;;;;;2.95;2.75;;;;;;;;;;5062911;28;20279;-85
2021/06/15 13:50:36;;;;;;;3.20;2.38;;;;;;;;;;5079592;28;20220;-85
2021/06/15 13:53:05;;;;;;;3.15;2.85;;;;;;;;;;5092596;28;20761;-84
2021/06/15 13:55:34;;;;;;;4.13;3.72;;;;;;;;;;5091786;28;20295;-85
2021/06/15 13:58:06;;;;;;;3.60;3.30;;;;;;;;;;5092460;28;20196;-85
2021/06/15 14:00:33;;;;;;;3.90;3.50;;;;;;;;;;5092657;28;20242;-85
2021/06/15 14:03:02;;;;;;;3.67;3.38;;;;;;;;;;5091829;28;20184;-85
2021/06/15 14:05:31;;;;;;;4.97;4.38;;;;;;;;;;5083225;28;20627;-85
2021/06/15 14:08:00;;;;;;;3.95;3.65;;;;;;;;;;5072005;28;20285;-85
2021/06/15 14:10:28;;;;;;;3.85;3.55;;;;;;;;;;5071551;28;20232;-85
2021/06/15 14:12:58;;;;;;;3.10;2.80;;;;;;;;;;5089186;28;20210;-85
2021/06/15 14:15:28;;;;;;;4.00;3.67;;;;;;;;;;5091843;28;20555;-85
2021/06/15 14:17:56;;;;;;;4.32;3.90;;;;;;;;;;5092114;28;20559;-85
2021/06/15 14:20:26;;;;;;;4.00;3.70;;;;;;;;;;5092208;28;20236;-87
2021/06/15 14:22:56;;;;;;;4.00;3.70;;;;;;;;;;5093051;28;20211;-87
2021/06/15 14:25:27;;;;;;;3.47;3.17;;;;;;;;;;5090188;28;20224;-87
2021/06/15 14:27:55;;;;;;;4.50;4.15;;;;;;;;;;5088780;28;20201;-87
2021/06/15 14:30:24;;;;;;;5.63;4.70;;;;;;;;;;5090136;28;20213;-85
2021/06/15 14:32:52;;;;;;;3.97;3.67;;;;;;;;;;5091407;28;20207;-85
2021/06/15 14:35:20;;;;;;;4.30;3.53;;;;;;;;;;5091534;28;20280;-84
2021/06/15 14:37:49;;;;;;;3.63;2.97;;;;;;;;;;5091824;28;20197;-87
2021/06/15 14:40:20;;;;;;;3.53;3.33;;;;;;;;;;5094621;28;20721;-88
2021/06/15 14:42:48;;;;;;;3.88;3.53;;;;;;;;;;5095002;28;20280;-84
2021/06/15 14:45:18;;;;;;;3.55;3.25;;;;;;;;;;5085579;28;20192;-86
2021/06/15 14:47:46;;;;;;;2.90;2.60;;;;;;;;;;5095514;28;20203;-85
2021/06/15 14:50:14;;;;;;;4.60;2.85;;;;;;;;;;5095033;28;20223;-85
2021/06/15 14:52:44;;;;;;;3.00;2.80;;;;;;;;;;5095489;28;20653;-85
2021/06/15 14:55:13;;;;;;;2.72;2.53;;;;;;;;;;5093035;28;20188;-87
2021/06/15 14:57:43;;;;;;;3.17;2.97;;;;;;;;;;5095012;28;20529;-85
2021/06/15 15:00:13;;;;;;;3.28;3.08;;;;;;;;;;5094764;28;20311;-84
2021/06/15 15:02:40;;;;;;;3.00;2.80;;;;;;;;;;5095561;28;20185;-87
2021/06/15 15:05:09;;;;;;;3.80;3.42;;;;;;;;;;5095041;28;20264;-85
2021/06/15 15:07:42;;;;;;;3.30;3.00;;;;;;;;;;5094882;28;20200;-84
2021/06/15 15:10:12;;;;;;;3.35;3.15;;;;;;;;;;5095455;28;20219;-84